createdAt,value
2023-03-12T00:00:02.966Z,31.90
2023-03-12T00:10:01.005Z,31.60
2023-03-12T00:20:02.225Z,33.70
2023-03-12T00:30:01.028Z,37.30
2023-03-12T00:40:01.257Z,29.70
2023-03-12T00:50:01.437Z,27.80
2023-03-12T01:00:01.047Z,37.10
2023-03-12T01:10:01.525Z,40.50
2023-03-12T01:20:04.111Z,34.00
2023-03-12T01:30:02.501Z,39.60
2023-03-12T01:40:01.532Z,40.00
2023-03-12T01:50:01.518Z,48.60
2023-03-12T02:00:02.797Z,37.90
2023-03-12T02:10:01.398Z,52.60
2023-03-12T02:20:01.068Z,46.50
2023-03-12T02:30:01.017Z,57.40
2023-03-12T02:40:01.945Z,57.00
2023-03-12T02:50:00.965Z,42.70
2023-03-12T03:00:01.017Z,44.90
2023-03-12T03:10:01.285Z,38.70
2023-03-12T03:20:01.077Z,32.10
2023-03-12T03:30:01.033Z,46.10
2023-03-12T03:40:00.184Z,27.20
2023-03-12T03:50:02.076Z,39.40
2023-03-12T04:00:03.599Z,31.40
2023-03-12T04:10:01.050Z,27.90
2023-03-12T04:20:01.246Z,28.80
2023-03-12T04:30:01.314Z,23.00
2023-03-12T04:40:02.496Z,26.50
2023-03-12T04:50:01.045Z,27.60
2023-03-12T05:00:01.072Z,31.40
2023-03-12T05:10:02.174Z,30.20
2023-03-12T05:20:02.124Z,35.90
2023-03-12T05:30:02.335Z,29.40
2023-03-12T05:40:01.983Z,33.00
2023-03-12T05:50:01.050Z,43.90
2023-03-12T06:00:02.337Z,37.20
2023-03-12T06:10:01.813Z,29.50
2023-03-12T06:20:01.030Z,38.10
2023-03-12T06:30:01.186Z,43.20
2023-03-12T06:40:01.087Z,36.10
2023-03-12T06:50:01.205Z,32.20
2023-03-12T07:00:01.251Z,34.20
2023-03-12T07:10:01.053Z,39.90
2023-03-12T07:20:03.818Z,29.60
2023-03-12T07:30:00.992Z,43.80
2023-03-12T07:40:01.108Z,53.50
2023-03-12T07:50:03.418Z,54.20
2023-03-12T08:00:01.566Z,50.70
2023-03-12T08:10:01.272Z,96.30
2023-03-12T08:30:01.113Z,36.20
2023-03-12T08:40:01.052Z,48.60
2023-03-12T08:50:01.027Z,56.60
2023-03-12T09:00:02.087Z,40.30
2023-03-12T09:10:01.001Z,52.40
2023-03-12T09:20:01.584Z,57.20
2023-03-12T09:30:01.536Z,45.10
2023-03-12T09:40:01.872Z,56.80
2023-03-12T09:50:01.206Z,49.70
2023-03-12T10:00:03.075Z,38.80
2023-03-12T10:10:01.027Z,65.60
2023-03-12T10:20:03.993Z,61.90
2023-03-12T10:30:01.556Z,48.00
2023-03-12T10:40:02.085Z,48.20
2023-03-12T10:50:02.224Z,69.50
2023-03-12T11:00:02.807Z,62.70
2023-03-12T11:10:01.060Z,139.70
2023-03-12T11:20:02.225Z,181.90
2023-03-12T11:30:01.405Z,87.00
2023-03-12T11:40:01.504Z,158.20
2023-03-12T11:50:02.105Z,100.90
2023-03-12T12:00:01.292Z,89.80
2023-03-12T12:10:01.059Z,133.20
2023-03-12T12:20:01.274Z,99.70
2023-03-12T12:30:01.988Z,113.60
2023-03-12T12:40:02.151Z,97.80
2023-03-12T12:50:01.907Z,75.30
2023-03-12T13:00:01.250Z,38.90
2023-03-12T13:10:00.987Z,26.60
2023-03-12T13:20:04.356Z,45.30
2023-03-12T13:30:01.027Z,64.70
2023-03-12T13:40:01.912Z,40.10
2023-03-12T13:50:01.103Z,40.60
2023-03-12T14:00:01.606Z,51.70
2023-03-12T14:10:01.213Z,20.80
2023-03-12T14:20:01.315Z,16.80
2023-03-12T14:30:02.047Z,28.50
2023-03-12T14:40:01.527Z,18.00
2023-03-12T14:50:01.571Z,19.70
2023-03-12T15:00:01.339Z,14.40
2023-03-12T15:10:02.807Z,19.60
2023-03-12T15:20:00.987Z,17.10
2023-03-12T15:30:01.266Z,17.20
2023-03-12T15:40:01.855Z,18.00
2023-03-12T15:50:02.506Z,13.40
2023-03-12T16:00:01.550Z,16.70
2023-03-12T16:10:01.037Z,20.10
2023-03-12T16:20:01.055Z,20.30
2023-03-12T16:30:01.291Z,16.40
2023-03-12T16:40:03.218Z,19.30
2023-03-12T16:50:00.163Z,14.20
2023-03-12T17:10:01.332Z,16.30
2023-03-12T17:20:01.081Z,16.90
2023-03-12T17:30:00.168Z,22.50
2023-03-12T17:40:01.066Z,24.80
2023-03-12T17:50:02.206Z,15.60
2023-03-12T18:00:01.397Z,16.70
2023-03-12T18:10:01.283Z,25.80
2023-03-12T18:20:02.125Z,24.40
2023-03-12T18:30:03.003Z,19.40
2023-03-12T18:40:01.358Z,24.50
2023-03-12T18:50:03.395Z,22.70
2023-03-12T19:00:01.102Z,33.20
2023-03-12T19:10:01.415Z,19.90
2023-03-12T19:20:01.001Z,23.60
2023-03-12T19:30:01.740Z,27.50
2023-03-12T19:40:02.204Z,19.30
2023-03-12T19:50:01.110Z,33.70
2023-03-12T20:00:02.380Z,26.10
2023-03-12T20:10:05.010Z,19.30
2023-03-12T20:20:01.259Z,25.10
2023-03-12T20:30:01.068Z,22.10
2023-03-12T20:40:01.307Z,37.40
2023-03-12T20:50:01.317Z,34.10
2023-03-12T21:00:02.653Z,43.60
2023-03-12T21:10:01.277Z,33.20
2023-03-12T21:20:01.456Z,69.80
2023-03-12T21:30:02.248Z,34.70
2023-03-12T21:40:01.019Z,54.20
2023-03-12T21:50:01.527Z,58.70
2023-03-12T22:00:03.176Z,31.50
2023-03-12T22:10:01.199Z,25.50
2023-03-12T22:20:01.048Z,30.20
2023-03-12T22:30:01.312Z,18.60
2023-03-12T22:40:01.077Z,24.20
2023-03-12T22:50:03.315Z,20.60
2023-03-12T23:00:01.028Z,19.30
2023-03-12T23:10:01.584Z,28.90
2023-03-12T23:20:00.188Z,20.40
2023-03-12T23:30:01.464Z,15.40
2023-03-12T23:40:01.243Z,24.20
2023-03-12T23:50:01.031Z,21.30
